This is the latest recevied weather packets stored in our database for station/object G6LTT. If no packets are shown the sender has not sent any weather packets the latest 10 day(s).
| Time | Temp. | Humidity | Pressure | Rain* | Wind** | Luminosity | Snow |
|---|---|---|---|---|---|---|---|
| 1778040003 | 7.78° C | 79% | 1040.9 hPa | 0 mm | - | - | - |
| 1778038563 | 7.78° C | 79% | 1041 hPa | 0 mm | - | - | - |
| 1778036043 | 8.33° C | 78% | 1041.1 hPa | 0 mm | - | - | - |
| 1778033883 | 8.89° C | 77% | 1041.1 hPa | 0 mm | - | - | - |
| 1778032936 | 8.89° C | 77% | 1041.2 hPa | 0 mm | - | - | - |
| 1778029203 | 9.44° C | 80% | 1041.3 hPa | 0 mm | - | - | - |
| 1778025243 | 9.44° C | 76% | 1041.6 hPa | 0 mm | - | - | - |
| 1778021643 | 10° C | 74% | 1041.6 hPa | 0 mm | - | - | - |
| 1778021237 | 10.56° C | 74% | 1041.6 hPa | 0 mm | - | - | - |
| 1778019483 | 10.56° C | 72% | 1041.2 hPa | 0 mm | - | - | - |
| 1778019076 | 10.56° C | 71% | 1041.5 hPa | 0 mm | - | - | - |
| 1778018175 | 11.11° C | 70% | 1041.5 hPa | 0 mm | - | - | - |
| 1778015883 | 11.67° C | 75% | 1041.3 hPa | 0 mm | - | - | - |
| 1778014803 | 11.67° C | 73% | 1041.2 hPa | 0 mm | - | - | - |
| 1778012420 | 12.78° C | 65% | 1040.9 hPa | 0 mm | - | - | - |
| 1778009763 | 12.78° C | 66% | 1040.1 hPa | 0 mm | - | - | - |
| 1778009223 | 12.78° C | 65% | 1040.2 hPa | 0 mm | - | - | - |
| 1778008683 | 13.33° C | 65% | 1040 hPa | 0 mm | - | - | - |
| 1778002563 | 15° C | 55% | 1039.6 hPa | 0 mm | - | - | - |
| 1778002154 | 15.56° C | 54% | 1039.6 hPa | 0 mm | - | - | - |
| 1778000943 | 15.56° C | 54% | 1039.8 hPa | 0 mm | - | - | - |
| 1777998423 | 15.56° C | 52% | 1039.9 hPa | 0 mm | - | - | - |
| 1777994823 | 16.67° C | 47% | 1039.7 hPa | 0 mm | - | - | - |
| 1777992303 | 16.67° C | 48% | 1039.9 hPa | 0 mm | - | - | - |
| 1777991224 | 16.67° C | 48% | 1039.9 hPa | 0 mm | - | - | - |
* Rain latest hour (hover to see other rain measurements)
** Current wind speed in m/s (hover to see current wind gust speed)